Stacja Pogody
Warszawa Praga-Północ

Szerokość 52°15'43"N Długość 21°01'22"E Wysokość 110m n.p.m.


241 dzień roku. Do końca pozostalo 125 dni.
Wschód Słońca 05:40 Górowanie Słońca 12:37 Zachód Słońca 19:33 panna
Data juliańska 2457629.796 Odległość Słońca 151057738 km Średn. kątowa Słońca 0,317°
Wschód Księżyca 01:18 Zachód Księżyca 17:10 Wiek Księżyca 25 dni Moon
Widoczność Księżyca 18,50% Odległość Księżyca 374496 km Średn. kątowa Księżyca 0,319°
Dzień krótszy od najdłuższego o: 02:55 Długość dnia 13:52 Imieniny Patrycji, Wyszomira, Augustyna



  Aktualizacja: 28-08-2016 07:04:45
TEMPERATURA
Aktualnie: 18.1°C →
Temperatura odczuwalna:21.8°C
Punkt rosy14.6°C
WIATR
Średnia prędkość: 3.6km/h ↑
Prędkość w podmuchach:5.0km/h
Przepływ w ciągu doby:126.0km
Kierunek wiatru:90°
CIŚNIENIE
Względne:1019.0hPa
Bezwzględne:1005.8hPa
Trend ciśnienia:powolny spadek
WILGOTNOŚĆ
Wilgotność względna: 80% ↓
Podstawa chmur1640m
DESZCZ
W ostatniej godzinie: 0.0mm
Dzisiaj:0.0mm
W tym miesiącu:87.6mm
METAR
EPWA 231430Z 31008KT CAVOK 23/13 Q1024 NOSIG
Ostrzeżenia burzowe





a  a a